createdAt,value
2023-03-21T00:00:56.397Z,6.80
2023-03-21T00:03:26.105Z,6.18
2023-03-21T00:05:55.534Z,6.03
2023-03-21T00:08:25.128Z,7.13
2023-03-21T00:10:58.038Z,7.40
2023-03-21T00:13:32.502Z,6.43
2023-03-21T00:16:11.353Z,5.43
2023-03-21T00:18:48.989Z,7.43
2023-03-21T00:24:08.131Z,6.82
2023-03-21T00:26:38.245Z,6.43
2023-03-21T00:29:10.084Z,4.47
2023-03-21T00:31:39.443Z,5.75
2023-03-21T00:34:09.356Z,6.28
2023-03-21T00:36:39.241Z,7.88
2023-03-21T00:39:08.863Z,9.50
2023-03-21T00:41:43.238Z,8.45
2023-03-21T00:44:16.220Z,7.55
2023-03-21T00:46:57.272Z,8.93
2023-03-21T00:49:33.710Z,8.30
2023-03-21T00:52:15.822Z,8.70
2023-03-21T00:54:47.644Z,8.88
2023-03-21T00:57:17.659Z,10.48
2023-03-21T00:59:49.458Z,10.07
2023-03-21T01:02:22.900Z,10.35
2023-03-21T01:04:52.420Z,8.75
2023-03-21T01:07:21.596Z,10.75
2023-03-21T01:09:50.985Z,6.72
2023-03-21T01:12:20.253Z,8.55
2023-03-21T01:14:52.039Z,7.30
2023-03-21T01:17:21.218Z,7.88
2023-03-21T01:19:52.317Z,7.95
2023-03-21T01:22:21.654Z,10.95
2023-03-21T01:24:55.513Z,8.55
2023-03-21T01:27:27.742Z,5.78
2023-03-21T01:29:59.848Z,7.75
2023-03-21T01:32:29.305Z,7.15
2023-03-21T01:34:58.696Z,5.60
2023-03-21T01:37:27.920Z,7.75
2023-03-21T01:39:57.126Z,6.68
2023-03-21T01:42:26.309Z,8.02
2023-03-21T01:44:59.475Z,6.53
2023-03-21T01:47:28.700Z,6.97
2023-03-21T01:49:58.225Z,8.27
2023-03-21T01:52:37.985Z,7.78
2023-03-21T01:55:08.324Z,7.53
2023-03-21T01:57:47.353Z,7.57
2023-03-21T02:00:29.510Z,6.43
2023-03-21T02:03:11.103Z,8.15
2023-03-21T02:05:43.204Z,7.60
2023-03-21T02:08:13.286Z,9.52
2023-03-21T02:10:42.614Z,6.97
2023-03-21T02:13:12.015Z,7.78
2023-03-21T02:15:44.112Z,8.00
2023-03-21T02:18:14.705Z,7.43
2023-03-21T02:20:51.147Z,8.00
2023-03-21T02:23:27.432Z,7.00
2023-03-21T02:26:04.759Z,7.63
2023-03-21T02:28:34.421Z,8.43
2023-03-21T02:31:32.450Z,7.50
2023-03-21T02:34:16.739Z,6.20
2023-03-21T02:36:52.438Z,9.52
2023-03-21T02:39:23.479Z,8.35
2023-03-21T02:44:22.434Z,9.13
2023-03-21T02:47:04.611Z,7.50
2023-03-21T02:49:36.727Z,8.70
2023-03-21T02:52:15.599Z,8.18
2023-03-21T02:54:51.647Z,7.07
2023-03-21T02:57:21.034Z,5.85
2023-03-21T02:59:54.530Z,5.57
2023-03-21T03:02:27.500Z,7.85
2023-03-21T03:04:56.943Z,6.88
2023-03-21T03:07:34.351Z,9.07
2023-03-21T03:10:06.255Z,8.80
2023-03-21T03:12:37.461Z,6.60
2023-03-21T03:15:08.911Z,6.47
2023-03-21T03:17:41.092Z,7.63
2023-03-21T03:20:17.512Z,5.68
2023-03-21T03:22:51.089Z,5.35
2023-03-21T03:25:32.408Z,7.80
2023-03-21T03:28:09.378Z,7.97
2023-03-21T03:30:44.937Z,8.05
2023-03-21T03:33:23.538Z,7.50
2023-03-21T03:36:04.400Z,7.13
2023-03-21T03:38:37.206Z,9.02
2023-03-21T03:41:07.580Z,7.88
2023-03-21T03:43:37.511Z,7.38
2023-03-21T03:46:10.507Z,8.07
2023-03-21T03:48:46.403Z,8.60
2023-03-21T03:51:17.453Z,7.93
2023-03-21T03:53:50.543Z,7.07
2023-03-21T03:56:19.763Z,8.25
2023-03-21T03:58:49.128Z,8.05
2023-03-21T04:01:18.340Z,4.75
2023-03-21T04:03:51.002Z,8.10
2023-03-21T04:06:24.419Z,6.78
2023-03-21T04:08:56.504Z,8.80
2023-03-21T04:11:26.056Z,6.13
2023-03-21T04:13:55.295Z,7.97
2023-03-21T04:16:25.551Z,9.23
2023-03-21T04:18:54.779Z,7.75
2023-03-21T04:21:24.324Z,6.07
2023-03-21T04:23:56.628Z,6.32
2023-03-21T04:26:32.855Z,7.68
2023-03-21T04:29:03.035Z,7.40
2023-03-21T04:31:33.994Z,9.97
2023-03-21T04:34:03.560Z,8.25
2023-03-21T04:36:38.721Z,6.47
2023-03-21T04:39:12.577Z,8.30
2023-03-21T04:41:42.084Z,8.40
2023-03-21T04:44:11.795Z,7.43
2023-03-21T04:46:41.095Z,7.22
2023-03-21T04:49:10.405Z,7.07
2023-03-21T04:51:39.706Z,6.95
2023-03-21T04:56:42.997Z,7.93
2023-03-21T04:59:12.805Z,6.07
2023-03-21T05:01:43.709Z,5.78
2023-03-21T05:04:13.067Z,9.55
2023-03-21T05:06:42.378Z,7.93
2023-03-21T05:09:14.204Z,7.88
2023-03-21T05:11:43.440Z,6.60
2023-03-21T05:14:13.297Z,8.70
2023-03-21T05:16:48.566Z,7.90
2023-03-21T05:19:19.044Z,7.22
2023-03-21T05:21:48.913Z,6.70
2023-03-21T05:24:21.021Z,7.78
2023-03-21T05:26:52.473Z,6.72
2023-03-21T05:29:21.843Z,8.95
2023-03-21T05:31:51.678Z,9.65
2023-03-21T05:34:20.890Z,10.10
2023-03-21T05:36:50.089Z,7.50
2023-03-21T05:39:21.960Z,8.38
2023-03-21T05:41:51.318Z,7.82
2023-03-21T05:44:20.604Z,8.60
2023-03-21T05:46:49.833Z,7.97
2023-03-21T05:49:19.012Z,8.23
2023-03-21T05:51:48.250Z,7.90
2023-03-21T05:54:17.587Z,10.82
2023-03-21T05:56:49.352Z,10.27
2023-03-21T05:59:18.522Z,11.23
2023-03-21T06:01:47.711Z,12.50
2023-03-21T06:04:16.942Z,13.07
2023-03-21T06:06:46.237Z,11.15
2023-03-21T06:09:15.856Z,10.43
2023-03-21T06:11:47.073Z,9.63
2023-03-21T06:14:19.073Z,9.63
2023-03-21T06:16:48.262Z,11.13
2023-03-21T06:19:17.470Z,9.85
2023-03-21T06:21:46.659Z,12.40
2023-03-21T06:24:15.954Z,10.73
2023-03-21T06:26:45.389Z,12.15
2023-03-21T06:29:14.929Z,7.63
2023-03-21T06:31:46.782Z,9.38
2023-03-21T06:34:16.024Z,10.48
2023-03-21T06:36:46.737Z,7.75
2023-03-21T06:39:16.121Z,12.38
2023-03-21T06:41:45.399Z,8.48
2023-03-21T06:44:14.608Z,8.57
2023-03-21T06:46:43.860Z,9.02
2023-03-21T06:49:15.675Z,9.70
2023-03-21T06:51:44.875Z,12.05
2023-03-21T06:54:14.608Z,13.85
2023-03-21T06:56:43.915Z,9.65
2023-03-21T06:59:13.554Z,10.48
2023-03-21T07:01:42.875Z,10.02
2023-03-21T07:04:12.122Z,10.88
2023-03-21T07:06:43.891Z,11.07
2023-03-21T07:09:13.088Z,10.15
2023-03-21T07:11:42.295Z,11.52
2023-03-21T07:14:11.574Z,10.15
2023-03-21T07:16:41.159Z,9.13
2023-03-21T07:19:10.628Z,9.80
2023-03-21T07:21:39.828Z,10.55
2023-03-21T07:24:11.824Z,8.85
2023-03-21T07:26:41.098Z,10.52
2023-03-21T07:29:10.281Z,11.88
2023-03-21T07:31:39.986Z,11.70
2023-03-21T07:34:09.239Z,10.40
2023-03-21T07:36:38.440Z,9.93
2023-03-21T07:39:07.603Z,9.95
2023-03-21T07:41:39.375Z,9.35
2023-03-21T07:44:08.602Z,9.20
2023-03-21T07:46:37.840Z,10.43
2023-03-21T07:49:08.962Z,10.20
2023-03-21T07:51:38.250Z,10.88
2023-03-21T07:54:07.694Z,12.50
2023-03-21T07:56:39.473Z,11.25
2023-03-21T07:59:08.687Z,11.23
2023-03-21T08:01:37.921Z,10.35
2023-03-21T08:04:07.229Z,10.73
2023-03-21T08:06:36.445Z,11.63
2023-03-21T08:09:06.295Z,10.95
2023-03-21T08:11:35.569Z,12.10
2023-03-21T08:14:07.322Z,12.30
2023-03-21T08:16:36.506Z,12.23
2023-03-21T08:19:05.931Z,11.18
2023-03-21T08:21:35.157Z,10.18
2023-03-21T08:24:04.349Z,11.68
2023-03-21T08:26:36.282Z,11.60
2023-03-21T08:29:08.070Z,12.65
2023-03-21T08:31:37.288Z,11.52
2023-03-21T08:34:07.574Z,12.77
2023-03-21T08:36:36.969Z,12.48
2023-03-21T08:39:07.451Z,12.45
2023-03-21T08:41:36.957Z,13.10
2023-03-21T08:44:09.654Z,12.05
2023-03-21T08:46:38.858Z,12.23
2023-03-21T08:49:08.117Z,11.40
2023-03-21T08:51:37.722Z,13.73
2023-03-21T08:54:07.516Z,12.15
2023-03-21T08:56:37.551Z,15.13
2023-03-21T08:59:10.097Z,9.85
2023-03-21T09:01:39.356Z,12.60
2023-03-21T09:04:10.987Z,11.23
2023-03-21T09:06:41.053Z,11.93
2023-03-21T09:09:10.712Z,13.10
2023-03-21T09:11:39.892Z,12.32
2023-03-21T09:14:12.023Z,11.27
2023-03-21T09:16:41.399Z,10.27
2023-03-21T09:19:11.494Z,13.38
2023-03-21T09:21:41.373Z,11.80
2023-03-21T09:24:12.705Z,9.88
2023-03-21T09:26:44.022Z,10.85
2023-03-21T09:29:16.033Z,12.02
2023-03-21T09:31:46.855Z,10.57
2023-03-21T09:34:16.439Z,10.93
2023-03-21T09:36:48.579Z,12.73
2023-03-21T09:39:17.989Z,12.68
2023-03-21T09:41:51.073Z,11.70
2023-03-21T09:44:35.134Z,12.38
2023-03-21T09:47:07.853Z,14.27
2023-03-21T09:49:37.772Z,11.82
2023-03-21T09:52:09.414Z,13.93
2023-03-21T09:54:39.460Z,11.65
2023-03-21T09:57:15.015Z,15.02
2023-03-21T09:59:45.022Z,13.05
2023-03-21T10:02:21.792Z,12.70
2023-03-21T10:04:51.297Z,13.93
2023-03-21T10:07:21.122Z,14.15
2023-03-21T10:09:51.214Z,12.45
2023-03-21T10:12:22.373Z,12.68
2023-03-21T10:14:51.926Z,13.35
2023-03-21T10:17:25.363Z,11.45
2023-03-21T10:19:54.651Z,11.48
2023-03-21T10:22:23.820Z,11.02
2023-03-21T10:24:53.074Z,12.95
2023-03-21T10:27:22.336Z,10.40
2023-03-21T10:29:53.204Z,11.30
2023-03-21T10:32:25.044Z,13.00
2023-03-21T10:37:25.910Z,10.98
2023-03-21T10:39:55.873Z,13.65
2023-03-21T10:42:25.404Z,15.18
2023-03-21T10:44:54.969Z,10.43
2023-03-21T10:47:27.526Z,12.45
2023-03-21T10:50:07.219Z,9.70
2023-03-21T10:52:37.252Z,10.53
2023-03-21T10:55:08.542Z,10.00
2023-03-21T10:57:38.156Z,12.98
2023-03-21T11:00:17.073Z,9.90
2023-03-21T11:02:49.067Z,10.30
2023-03-21T11:05:21.114Z,12.30
2023-03-21T11:07:50.326Z,10.90
2023-03-21T11:10:29.313Z,9.38
2023-03-21T11:12:58.853Z,11.30
2023-03-21T11:15:29.109Z,11.80
2023-03-21T11:18:00.906Z,12.50
2023-03-21T11:20:32.334Z,12.40
2023-03-21T11:23:01.568Z,11.30
2023-03-21T11:25:35.217Z,11.32
2023-03-21T11:28:07.897Z,11.35
2023-03-21T11:30:37.106Z,12.05
2023-03-21T11:33:08.968Z,12.70
2023-03-21T11:35:39.148Z,10.75
2023-03-21T11:38:08.673Z,13.15
2023-03-21T11:40:39.621Z,11.80
2023-03-21T11:45:38.887Z,13.23
2023-03-21T11:48:10.734Z,11.00
2023-03-21T11:50:40.301Z,13.82
2023-03-21T11:53:18.232Z,13.38
2023-03-21T11:55:53.670Z,11.57
2023-03-21T11:58:27.327Z,14.35
2023-03-21T12:01:01.059Z,12.52
2023-03-21T12:03:48.360Z,14.10
2023-03-21T12:06:20.374Z,15.13
2023-03-21T12:08:51.691Z,13.48
2023-03-21T12:11:22.297Z,13.40
2023-03-21T12:13:54.273Z,12.88
2023-03-21T12:16:33.860Z,20.58
2023-03-21T12:19:17.943Z,13.45
2023-03-21T12:21:49.896Z,15.48
2023-03-21T12:24:20.897Z,15.38
2023-03-21T12:26:52.624Z,14.23
2023-03-21T12:29:25.953Z,12.98
2023-03-21T12:32:01.245Z,13.93
2023-03-21T12:37:52.014Z,13.82
2023-03-21T12:40:25.473Z,14.20
2023-03-21T12:43:07.104Z,12.20
2023-03-21T12:45:46.613Z,14.40
2023-03-21T12:48:18.576Z,15.40
2023-03-21T12:50:49.933Z,17.73
2023-03-21T12:53:29.812Z,16.90
2023-03-21T12:55:59.472Z,17.40
2023-03-21T12:58:28.743Z,17.88
2023-03-21T13:00:58.295Z,16.65
2023-03-21T13:03:37.453Z,15.57
2023-03-21T13:08:41.999Z,18.42
2023-03-21T13:11:11.259Z,16.35
2023-03-21T13:13:41.641Z,18.25
2023-03-21T13:16:12.198Z,18.40
2023-03-21T13:18:42.977Z,20.33
2023-03-21T13:21:14.099Z,20.42
2023-03-21T13:26:14.838Z,17.98
2023-03-21T13:28:44.054Z,18.30
2023-03-21T13:31:22.749Z,17.65
2023-03-21T13:33:52.485Z,17.75
2023-03-21T13:36:25.795Z,18.42
2023-03-21T13:38:55.375Z,18.52
2023-03-21T13:41:29.206Z,17.88
2023-03-21T13:43:58.537Z,23.25
2023-03-21T13:46:50.591Z,18.55
2023-03-21T13:49:28.217Z,20.33
2023-03-21T13:51:58.446Z,19.73
2023-03-21T13:54:30.351Z,16.67
2023-03-21T13:57:02.671Z,17.77
2023-03-21T13:59:38.966Z,19.95
2023-03-21T14:02:20.156Z,19.83
2023-03-21T14:07:34.008Z,20.58
2023-03-21T14:10:05.200Z,22.83
2023-03-21T14:12:40.801Z,20.88
2023-03-21T14:15:16.724Z,21.23
2023-03-21T14:17:51.945Z,24.45
2023-03-21T14:20:22.449Z,21.83
2023-03-21T14:22:51.656Z,19.80
2023-03-21T14:25:21.262Z,18.00
2023-03-21T14:27:53.404Z,18.88
2023-03-21T14:30:23.189Z,19.10
2023-03-21T14:32:52.395Z,19.30
2023-03-21T14:35:21.612Z,17.27
2023-03-21T14:37:51.410Z,16.40
2023-03-21T14:40:21.846Z,18.05
2023-03-21T14:42:53.739Z,16.45
2023-03-21T14:45:23.406Z,16.60
2023-03-21T14:47:59.084Z,15.88
2023-03-21T14:50:30.886Z,14.25
2023-03-21T14:53:00.142Z,16.23
2023-03-21T14:55:29.333Z,13.73
2023-03-21T14:58:01.093Z,14.00
2023-03-21T15:00:30.872Z,14.38
2023-03-21T15:03:00.751Z,15.05
2023-03-21T15:05:31.807Z,16.35
2023-03-21T15:10:30.842Z,17.00
2023-03-21T15:13:03.046Z,14.40
2023-03-21T15:15:32.344Z,16.13
2023-03-21T15:18:03.418Z,15.68
2023-03-21T15:23:03.050Z,16.42
2023-03-21T15:25:32.942Z,17.42
2023-03-21T15:28:05.571Z,14.70
2023-03-21T15:30:36.743Z,14.07
2023-03-21T15:33:08.667Z,16.67
2023-03-21T15:35:39.291Z,13.43
2023-03-21T15:38:08.713Z,16.95
2023-03-21T15:40:38.791Z,16.55
2023-03-21T15:43:15.302Z,14.50
2023-03-21T15:45:48.997Z,14.77
2023-03-21T15:48:18.376Z,16.67
2023-03-21T15:50:50.371Z,15.43
2023-03-21T15:53:20.092Z,14.90
2023-03-21T15:55:52.227Z,16.15
2023-03-21T15:58:24.509Z,14.30
2023-03-21T16:00:55.556Z,18.30
2023-03-21T16:03:25.937Z,17.02
2023-03-21T16:06:10.770Z,15.03
2023-03-21T16:08:40.540Z,15.65
2023-03-21T16:11:10.852Z,18.20
2023-03-21T16:13:42.616Z,15.75
2023-03-21T16:16:12.744Z,14.55
2023-03-21T16:18:41.930Z,15.27
2023-03-21T16:21:12.425Z,17.00
2023-03-21T16:23:41.834Z,13.88
2023-03-21T16:26:12.834Z,14.35
2023-03-21T16:28:44.588Z,15.88
2023-03-21T16:31:14.916Z,15.02
2023-03-21T16:33:44.863Z,13.23
2023-03-21T16:36:15.534Z,15.82
2023-03-21T16:38:44.721Z,14.65
2023-03-21T16:41:14.024Z,16.63
2023-03-21T16:43:46.059Z,13.02
2023-03-21T16:46:16.266Z,13.93
2023-03-21T16:48:45.729Z,15.80
2023-03-21T16:51:15.501Z,16.83
2023-03-21T16:53:44.733Z,14.43
2023-03-21T16:56:17.278Z,16.48
2023-03-21T16:58:49.031Z,15.88
2023-03-21T17:01:19.208Z,15.93
2023-03-21T17:03:48.508Z,18.23
2023-03-21T17:06:18.207Z,16.70
2023-03-21T17:08:47.457Z,16.42
2023-03-21T17:11:17.077Z,17.02
2023-03-21T17:13:48.838Z,16.73
2023-03-21T17:16:19.156Z,17.27
2023-03-21T17:18:48.435Z,18.05
2023-03-21T17:21:18.028Z,18.10
2023-03-21T17:23:47.242Z,18.52
2023-03-21T17:26:16.526Z,17.10
2023-03-21T17:28:45.790Z,18.13
2023-03-21T17:31:18.342Z,17.35
2023-03-21T17:33:47.556Z,15.55
2023-03-21T17:36:17.000Z,18.50
2023-03-21T17:38:46.344Z,21.88
2023-03-21T17:41:15.753Z,24.40
2023-03-21T17:43:45.001Z,25.63
2023-03-21T17:46:14.671Z,27.90
2023-03-21T17:48:46.656Z,27.08
2023-03-21T17:51:16.548Z,24.98
2023-03-21T17:53:45.757Z,22.10
2023-03-21T17:56:16.191Z,22.45
2023-03-21T17:58:45.390Z,23.45
2023-03-21T18:01:14.612Z,20.60
2023-03-21T18:03:46.411Z,22.20
2023-03-21T18:06:16.522Z,20.00
2023-03-21T18:08:45.840Z,22.67
2023-03-21T18:11:15.318Z,20.50
2023-03-21T18:13:44.882Z,21.67
2023-03-21T18:16:15.040Z,21.80
2023-03-21T18:18:47.247Z,22.50
2023-03-21T18:21:19.471Z,22.90
2023-03-21T18:23:49.611Z,32.67
2023-03-21T18:26:19.677Z,24.40
2023-03-21T18:29:34.259Z,22.67
2023-03-21T18:31:38.879Z,20.45
2023-03-21T18:34:10.689Z,23.42
2023-03-21T18:36:39.981Z,28.33
2023-03-21T18:39:09.186Z,28.23
2023-03-21T18:41:38.759Z,29.75
2023-03-21T18:44:17.524Z,25.98
2023-03-21T18:46:51.638Z,24.05
2023-03-21T18:52:12.806Z,23.83
2023-03-21T18:54:42.711Z,26.63
2023-03-21T19:00:01.464Z,25.90
2023-03-21T19:02:31.017Z,29.15
2023-03-21T19:05:02.906Z,25.83
2023-03-21T19:07:32.144Z,29.95
2023-03-21T19:10:16.923Z,27.35
2023-03-21T19:12:47.134Z,27.10
2023-03-21T19:15:17.896Z,33.63
2023-03-21T19:20:40.060Z,30.70
2023-03-21T19:23:10.861Z,27.60
2023-03-21T19:25:40.380Z,26.58
2023-03-21T19:28:10.141Z,23.52
2023-03-21T19:30:39.712Z,23.80
2023-03-21T19:33:09.163Z,30.83
2023-03-21T19:35:41.301Z,27.20
2023-03-21T19:38:11.931Z,26.88
2023-03-21T19:40:41.587Z,27.35
2023-03-21T19:43:31.666Z,27.17
2023-03-21T19:46:00.762Z,28.92
2023-03-21T19:48:30.157Z,27.08
2023-03-21T19:53:51.903Z,29.00
2023-03-21T19:56:24.562Z,27.50
2023-03-21T19:58:55.884Z,30.40
2023-03-21T20:01:25.431Z,29.27
2023-03-21T20:03:54.733Z,30.25
2023-03-21T20:06:26.927Z,31.10
2023-03-21T20:11:45.776Z,36.08
2023-03-21T20:14:14.977Z,34.78
2023-03-21T20:16:44.209Z,31.00
2023-03-21T20:19:16.009Z,30.63
2023-03-21T20:21:54.718Z,31.58
2023-03-21T20:24:28.197Z,29.38
2023-03-21T20:26:57.504Z,32.65
2023-03-21T20:32:16.046Z,28.83
2023-03-21T20:34:46.112Z,31.15
2023-03-21T20:37:18.297Z,30.77
2023-03-21T20:39:48.219Z,31.65
2023-03-21T20:42:18.040Z,36.15
2023-03-21T20:45:02.672Z,34.47
2023-03-21T20:47:31.870Z,33.83
2023-03-21T20:50:01.036Z,36.13
2023-03-21T20:55:22.072Z,36.65
2023-03-21T20:57:51.285Z,35.95
2023-03-21T21:00:22.192Z,36.58
2023-03-21T21:02:52.006Z,36.15
2023-03-21T21:05:28.170Z,40.03
2023-03-21T21:08:01.279Z,36.10
2023-03-21T21:10:33.473Z,35.35
2023-03-21T21:13:03.536Z,35.97
2023-03-21T21:15:33.610Z,32.90
2023-03-21T21:18:06.527Z,37.40
2023-03-21T21:20:36.441Z,34.13
2023-03-21T21:23:09.573Z,33.17
2023-03-21T21:25:38.977Z,35.85
2023-03-21T21:28:11.839Z,34.20
2023-03-21T21:30:41.802Z,35.97
2023-03-21T21:33:11.267Z,36.03
2023-03-21T21:35:47.418Z,35.80
2023-03-21T21:38:19.988Z,35.25
2023-03-21T21:40:49.391Z,34.65
2023-03-21T21:43:19.047Z,35.42
2023-03-21T21:45:48.325Z,33.25
2023-03-21T21:48:17.862Z,34.03
2023-03-21T21:50:47.442Z,33.78
2023-03-21T21:53:19.280Z,32.72
2023-03-21T21:55:51.101Z,34.80
2023-03-21T21:58:21.331Z,30.42
2023-03-21T22:00:50.745Z,32.57
2023-03-21T22:03:22.141Z,32.60
2023-03-21T22:05:51.482Z,31.35
2023-03-21T22:08:23.497Z,32.08
2023-03-21T22:10:52.670Z,33.78
2023-03-21T22:13:21.868Z,32.15
2023-03-21T22:15:51.748Z,27.67
2023-03-21T22:18:21.080Z,30.92
2023-03-21T22:20:50.578Z,31.02
2023-03-21T22:23:19.781Z,32.95
2023-03-21T22:25:54.494Z,32.63
2023-03-21T22:28:25.720Z,30.08
2023-03-21T22:30:54.972Z,30.10
2023-03-21T22:33:24.404Z,27.75
2023-03-21T22:35:53.776Z,27.80
2023-03-21T22:38:24.251Z,29.05
2023-03-21T22:40:59.452Z,27.65
2023-03-21T22:43:28.726Z,29.27
2023-03-21T22:45:57.928Z,30.95
2023-03-21T22:48:30.271Z,30.55
2023-03-21T22:50:59.517Z,30.58
2023-03-21T22:53:28.752Z,33.67
2023-03-21T22:56:00.765Z,39.40
2023-03-21T22:58:30.003Z,39.15
2023-03-21T23:01:02.879Z,37.40
2023-03-21T23:03:32.053Z,39.53
2023-03-21T23:06:01.505Z,44.00
2023-03-21T23:08:30.680Z,36.05
2023-03-21T23:11:02.476Z,39.28
2023-03-21T23:13:31.703Z,36.80
2023-03-21T23:16:05.110Z,35.03
2023-03-21T23:18:37.444Z,37.58
2023-03-21T23:21:13.238Z,35.35
2023-03-21T23:23:43.856Z,36.30
2023-03-21T23:26:15.697Z,35.83
2023-03-21T23:28:44.881Z,33.50
2023-03-21T23:31:14.724Z,34.97
2023-03-21T23:33:43.983Z,32.92
2023-03-21T23:36:14.157Z,33.70
2023-03-21T23:38:43.473Z,37.80
2023-03-21T23:41:15.633Z,36.88
2023-03-21T23:43:45.517Z,37.10
2023-03-21T23:46:15.173Z,32.50
2023-03-21T23:48:44.421Z,36.17
2023-03-21T23:51:13.679Z,38.00
2023-03-21T23:53:44.289Z,37.35
2023-03-21T23:56:16.917Z,37.85
2023-03-21T23:58:46.351Z,39.78
